This is the latest recevied weather packets stored in our database for station/object YO8SHU-10. If no packets are shown the sender has not sent any weather packets the latest 10 day(s).
| Time | Temp. | Humidity | Pressure | Rain* | Wind** | Luminosity | Snow |
|---|---|---|---|---|---|---|---|
| 1788282039 | 20.56° C | 100% | 1023.5 hPa | - | - | - | - |
| 1788280239 | 20.56° C | 100% | 1023.4 hPa | - | - | - | - |
| 1788278439 | 20° C | 100% | 1023.4 hPa | - | - | - | - |
| 1788276639 | 24.44° C | 100% | 1022.8 hPa | - | - | - | - |
| 1788274839 | 26.11° C | 87% | 1022.7 hPa | - | - | - | - |
| 1788273038 | 26.67° C | 82% | 1022.2 hPa | - | - | - | - |
| 1788271238 | 27.78° C | 81% | 1021.7 hPa | - | - | - | - |
| 1788269438 | 28.89° C | 73% | 1021.8 hPa | - | - | - | - |
| 1788267638 | 30° C | 70% | 1021.7 hPa | - | - | - | - |
| 1788265838 | 32.22° C | 59% | 1021.9 hPa | - | - | - | - |
| 1788264038 | 31.11° C | 66% | 1021.9 hPa | - | - | - | - |
| 1788262238 | 30.56° C | 75% | 1021.8 hPa | - | - | - | - |
| 1788260438 | 30.56° C | 83% | 1021.7 hPa | - | - | - | - |
| 1788258640 | 25.56° C | 100% | 1022.1 hPa | - | - | - | - |
| 1788256837 | 26.67° C | 85% | 1022.1 hPa | - | - | - | - |
| 1788255037 | 27.22° C | 80% | 1021.9 hPa | - | - | - | - |
| 1788253237 | 27.22° C | 76% | 1021.9 hPa | - | - | - | - |
| 1788251437 | 28.33° C | 78% | 1021.9 hPa | - | - | - | - |
| 1788249637 | 25.56° C | 80% | 1021.9 hPa | - | - | - | - |
| 1788247837 | 25° C | 80% | 1021.7 hPa | - | - | - | - |
| 1788246037 | 26.67° C | 83% | 1021.4 hPa | - | - | - | - |
| 1788244237 | 23.33° C | 93% | 1021.2 hPa | - | - | - | - |
| 1788242437 | 21.11° C | 98% | 1021.4 hPa | - | - | - | - |
| 1788240636 | 21.67° C | 94% | 1021 hPa | - | - | - | - |
| 1788238836 | 21.67° C | 89% | 1021 hPa | - | - | - | - |
* Rain since midnight (hover to see other rain measurements)
** Current wind speed in m/s (hover to see current wind gust speed)